sensor_id;sensor_type;location;lat;lon;timestamp;pressure;altitude;pressure_sealevel;temperature;humidity
43503;BME280;29098;48.184;16.298;2023-02-03T00:00:47;100234.75;;;2.28;100.00
43503;BME280;29098;48.184;16.298;2023-02-03T00:03:13;100246.81;;;2.29;100.00
43503;BME280;29098;48.184;16.298;2023-02-03T00:05:38;100240.66;;;2.30;100.00
43503;BME280;29098;48.184;16.298;2023-02-03T00:08:05;100246.72;;;2.31;100.00
43503;BME280;29098;48.184;16.298;2023-02-03T00:10:34;100253.88;;;2.27;100.00
43503;BME280;29098;48.184;16.298;2023-02-03T00:13:01;100258.47;;;2.37;100.00
43503;BME280;29098;48.184;16.298;2023-02-03T00:15:26;100260.34;;;2.35;100.00
43503;BME280;29098;48.184;16.298;2023-02-03T00:17:51;100252.13;;;2.41;100.00
43503;BME280;29098;48.184;16.298;2023-02-03T00:20:17;100264.91;;;2.31;100.00
43503;BME280;29098;48.184;16.298;2023-02-03T00:22:42;100267.44;;;2.32;100.00
43503;BME280;29098;48.184;16.298;2023-02-03T00:25:08;100273.13;;;2.25;100.00
43503;BME280;29098;48.184;16.298;2023-02-03T00:27:33;100277.94;;;2.31;100.00
43503;BME280;29098;48.184;16.298;2023-02-03T00:29:58;100273.88;;;2.40;100.00
43503;BME280;29098;48.184;16.298;2023-02-03T00:32:24;100270.53;;;2.38;100.00
43503;BME280;29098;48.184;16.298;2023-02-03T00:34:49;100275.72;;;2.38;100.00
43503;BME280;29098;48.184;16.298;2023-02-03T00:37:15;100266.69;;;2.43;100.00
43503;BME280;29098;48.184;16.298;2023-02-03T00:39:40;100279.41;;;2.35;100.00
43503;BME280;29098;48.184;16.298;2023-02-03T00:42:05;100276.34;;;2.41;100.00
43503;BME280;29098;48.184;16.298;2023-02-03T00:44:31;100277.38;;;2.39;100.00
43503;BME280;29098;48.184;16.298;2023-02-03T00:46:56;100284.06;;;2.30;100.00
43503;BME280;29098;48.184;16.298;2023-02-03T00:49:22;100283.44;;;2.26;100.00
43503;BME280;29098;48.184;16.298;2023-02-03T00:51:47;100285.75;;;2.31;100.00
43503;BME280;29098;48.184;16.298;2023-02-03T00:54:12;100279.91;;;2.27;100.00
43503;BME280;29098;48.184;16.298;2023-02-03T00:56:38;100275.72;;;2.38;100.00
43503;BME280;29098;48.184;16.298;2023-02-03T00:59:04;100276.56;;;2.38;100.00
43503;BME280;29098;48.184;16.298;2023-02-03T01:01:29;100269.06;;;2.46;100.00
43503;BME280;29098;48.184;16.298;2023-02-03T01:03:54;100268.03;;;2.49;100.00
43503;BME280;29098;48.184;16.298;2023-02-03T01:06:20;100265.00;;;2.42;100.00
43503;BME280;29098;48.184;16.298;2023-02-03T01:08:46;100259.19;;;2.39;100.00
43503;BME280;29098;48.184;16.298;2023-02-03T01:11:14;100261.38;;;2.32;100.00
43503;BME280;29098;48.184;16.298;2023-02-03T01:13:41;100246.72;;;2.31;100.00
43503;BME280;29098;48.184;16.298;2023-02-03T01:16:07;100257.13;;;2.31;100.00
43503;BME280;29098;48.184;16.298;2023-02-03T01:18:32;100258.06;;;2.30;100.00
43503;BME280;29098;48.184;16.298;2023-02-03T01:21:03;100248.28;;;2.33;100.00
43503;BME280;29098;48.184;16.298;2023-02-03T01:23:28;100249.72;;;2.38;100.00
43503;BME280;29098;48.184;16.298;2023-02-03T01:25:54;100246.16;;;2.39;100.00
43503;BME280;29098;48.184;16.298;2023-02-03T01:28:19;100241.56;;;2.42;100.00
43503;BME280;29098;48.184;16.298;2023-02-03T01:30:45;100244.19;;;2.29;100.00
43503;BME280;29098;48.184;16.298;2023-02-03T01:33:10;100247.22;;;2.23;100.00
43503;BME280;29098;48.184;16.298;2023-02-03T01:35:35;100243.72;;;2.24;100.00
43503;BME280;29098;48.184;16.298;2023-02-03T01:38:01;100237.25;;;2.30;100.00
43503;BME280;29098;48.184;16.298;2023-02-03T01:40:26;100236.72;;;2.25;100.00
43503;BME280;29098;48.184;16.298;2023-02-03T01:42:51;100239.94;;;2.15;100.00
43503;BME280;29098;48.184;16.298;2023-02-03T01:45:17;100238.59;;;2.10;100.00
43503;BME280;29098;48.184;16.298;2023-02-03T01:47:53;100232.66;;;2.08;100.00
43503;BME280;29098;48.184;16.298;2023-02-03T01:50:20;100229.56;;;2.15;100.00
43503;BME280;29098;48.184;16.298;2023-02-03T01:52:51;100224.34;;;2.15;100.00
43503;BME280;29098;48.184;16.298;2023-02-03T01:55:21;100217.06;;;2.21;100.00
43503;BME280;29098;48.184;16.298;2023-02-03T01:57:50;100211.56;;;2.12;100.00
43503;BME280;29098;48.184;16.298;2023-02-03T02:00:16;100213.00;;;2.16;100.00
43503;BME280;29098;48.184;16.298;2023-02-03T02:02:42;100207.06;;;2.14;100.00
43503;BME280;29098;48.184;16.298;2023-02-03T02:05:14;100209.78;;;2.13;100.00
43503;BME280;29098;48.184;16.298;2023-02-03T02:07:40;100201.84;;;2.27;100.00
43503;BME280;29098;48.184;16.298;2023-02-03T02:10:06;100205.06;;;2.31;100.00
43503;BME280;29098;48.184;16.298;2023-02-03T02:12:32;100186.94;;;2.42;100.00
43503;BME280;29098;48.184;16.298;2023-02-03T02:14:57;100196.66;;;2.27;100.00
43503;BME280;29098;48.184;16.298;2023-02-03T02:17:39;100192.06;;;2.31;100.00
43503;BME280;29098;48.184;16.298;2023-02-03T02:20:24;100198.72;;;2.35;100.00
43503;BME280;29098;48.184;16.298;2023-02-03T02:35:30;100199.03;;;2.30;100.00
43503;BME280;29098;48.184;16.298;2023-02-03T02:38:11;100184.38;;;2.16;100.00
43503;BME280;29098;48.184;16.298;2023-02-03T02:40:48;100182.59;;;2.30;100.00
43503;BME280;29098;48.184;16.298;2023-02-03T02:45:45;100179.78;;;2.33;100.00
43503;BME280;29098;48.184;16.298;2023-02-03T02:48:18;100174.56;;;2.33;100.00
43503;BME280;29098;48.184;16.298;2023-02-03T02:50:44;100171.78;;;2.23;100.00
43503;BME280;29098;48.184;16.298;2023-02-03T02:53:10;100180.81;;;2.30;100.00
43503;BME280;29098;48.184;16.298;2023-02-03T02:55:38;100174.31;;;2.12;100.00
43503;BME280;29098;48.184;16.298;2023-02-03T02:58:06;100169.72;;;2.15;100.00
43503;BME280;29098;48.184;16.298;2023-02-03T03:00:33;100164.41;;;2.04;100.00
43503;BME280;29098;48.184;16.298;2023-02-03T03:03:12;100173.47;;;2.11;100.00
43503;BME280;29098;48.184;16.298;2023-02-03T03:05:37;100159.72;;;2.09;100.00
43503;BME280;29098;48.184;16.298;2023-02-03T03:08:04;100146.53;;;2.12;100.00
43503;BME280;29098;48.184;16.298;2023-02-03T03:10:30;100142.88;;;2.02;100.00
43503;BME280;29098;48.184;16.298;2023-02-03T03:13:01;100137.38;;;1.94;100.00
43503;BME280;29098;48.184;16.298;2023-02-03T03:15:28;100125.75;;;1.86;100.00
43503;BME280;29098;48.184;16.298;2023-02-03T03:18:00;100130.44;;;1.81;100.00
43503;BME280;29098;48.184;16.298;2023-02-03T03:20:28;100122.66;;;1.81;100.00
43503;BME280;29098;48.184;16.298;2023-02-03T03:22:56;100125.75;;;1.86;100.00
43503;BME280;29098;48.184;16.298;2023-02-03T03:25:25;100127.22;;;1.90;100.00
43503;BME280;29098;48.184;16.298;2023-02-03T03:27:55;100131.25;;;1.95;100.00
43503;BME280;29098;48.184;16.298;2023-02-03T03:30:24;100125.31;;;2.05;100.00
43503;BME280;29098;48.184;16.298;2023-02-03T03:32:50;100124.91;;;1.99;100.00
43503;BME280;29098;48.184;16.298;2023-02-03T03:35:16;100113.78;;;1.97;100.00
43503;BME280;29098;48.184;16.298;2023-02-03T03:37:43;100110.16;;;1.86;100.00
43503;BME280;29098;48.184;16.298;2023-02-03T03:40:11;100113.16;;;1.93;100.00
43503;BME280;29098;48.184;16.298;2023-02-03T03:42:43;100099.84;;;1.98;100.00
43503;BME280;29098;48.184;16.298;2023-02-03T03:45:24;100107.84;;;1.95;100.00
43503;BME280;29098;48.184;16.298;2023-02-03T03:48:33;100098.38;;;1.94;100.00
43503;BME280;29098;48.184;16.298;2023-02-03T03:50:41;100105.38;;;1.93;100.00
43503;BME280;29098;48.184;16.298;2023-02-03T03:53:08;100108.25;;;2.01;100.00
43503;BME280;29098;48.184;16.298;2023-02-03T03:55:35;100107.00;;;2.07;100.00
43503;BME280;29098;48.184;16.298;2023-02-03T03:58:03;100128.63;;;2.08;100.00
43503;BME280;29098;48.184;16.298;2023-02-03T04:00:31;100112.41;;;2.04;100.00
43503;BME280;29098;48.184;16.298;2023-02-03T04:02:58;100109.50;;;2.09;100.00
43503;BME280;29098;48.184;16.298;2023-02-03T04:05:25;100113.25;;;2.04;100.00
43503;BME280;29098;48.184;16.298;2023-02-03T04:07:51;100116.41;;;1.97;100.00
43503;BME280;29098;48.184;16.298;2023-02-03T04:10:28;100106.00;;;1.97;100.00
43503;BME280;29098;48.184;16.298;2023-02-03T04:12:55;100085.81;;;2.00;100.00
43503;BME280;29098;48.184;16.298;2023-02-03T04:15:20;100077.47;;;1.95;100.00
43503;BME280;29098;48.184;16.298;2023-02-03T04:17:45;100080.69;;;1.99;100.00
43503;BME280;29098;48.184;16.298;2023-02-03T04:20:11;100079.44;;;2.04;100.00
43503;BME280;29098;48.184;16.298;2023-02-03T04:22:36;100088.69;;;1.96;100.00
43503;BME280;29098;48.184;16.298;2023-02-03T04:25:02;100078.28;;;1.96;100.00
43503;BME280;29098;48.184;16.298;2023-02-03T04:27:27;100067.69;;;1.99;100.00
43503;BME280;29098;48.184;16.298;2023-02-03T04:29:52;100066.88;;;1.85;100.00
43503;BME280;29098;48.184;16.298;2023-02-03T04:32:18;100059.47;;;1.92;100.00
43503;BME280;29098;48.184;16.298;2023-02-03T04:34:44;100070.03;;;1.77;100.00
43503;BME280;29098;48.184;16.298;2023-02-03T04:37:09;100071.47;;;1.82;100.00
43503;BME280;29098;48.184;16.298;2023-02-03T04:39:35;100069.34;;;2.00;100.00
43503;BME280;29098;48.184;16.298;2023-02-03T04:42:00;100049.16;;;2.03;100.00
43503;BME280;29098;48.184;16.298;2023-02-03T04:44:25;100053.13;;;1.96;100.00
43503;BME280;29098;48.184;16.298;2023-02-03T04:46:51;100048.97;;;1.94;100.00
43503;BME280;29098;48.184;16.298;2023-02-03T04:49:16;100049.41;;;1.87;100.00
43503;BME280;29098;48.184;16.298;2023-02-03T04:51:42;100032.34;;;1.96;100.00
43503;BME280;29098;48.184;16.298;2023-02-03T04:54:08;100041.03;;;2.08;100.00
43503;BME280;29098;48.184;16.298;2023-02-03T04:56:33;100040.53;;;2.03;100.00
43503;BME280;29098;48.184;16.298;2023-02-03T04:58:59;100019.84;;;2.01;100.00
43503;BME280;29098;48.184;16.298;2023-02-03T05:01:24;100035.28;;;2.16;100.00
43503;BME280;29098;48.184;16.298;2023-02-03T05:03:49;100025.44;;;2.08;100.00
43503;BME280;29098;48.184;16.298;2023-02-03T05:06:15;100021.06;;;2.09;100.00
43503;BME280;29098;48.184;16.298;2023-02-03T05:08:42;100019.50;;;2.30;100.00
43503;BME280;29098;48.184;16.298;2023-02-03T05:11:07;100021.19;;;2.31;100.00
43503;BME280;29098;48.184;16.298;2023-02-03T05:13:32;100029.63;;;2.46;100.00
43503;BME280;29098;48.184;16.298;2023-02-03T05:15:58;100018.63;;;2.43;100.00
43503;BME280;29098;48.184;16.298;2023-02-03T05:18:23;99996.91;;;2.55;100.00
43503;BME280;29098;48.184;16.298;2023-02-03T05:20:48;99996.66;;;2.58;100.00
43503;BME280;29098;48.184;16.298;2023-02-03T05:23:14;100004.38;;;2.60;100.00
43503;BME280;29098;48.184;16.298;2023-02-03T05:25:39;100023.13;;;2.52;100.00
43503;BME280;29098;48.184;16.298;2023-02-03T05:28:04;100001.31;;;2.66;100.00
43503;BME280;29098;48.184;16.298;2023-02-03T05:30:30;99982.25;;;2.66;100.00
43503;BME280;29098;48.184;16.298;2023-02-03T05:32:55;99994.44;;;2.65;100.00
43503;BME280;29098;48.184;16.298;2023-02-03T05:35:20;99988.66;;;2.73;100.00
43503;BME280;29098;48.184;16.298;2023-02-03T05:37:45;99984.75;;;2.67;100.00
43503;BME280;29098;48.184;16.298;2023-02-03T05:40:13;99985.97;;;2.86;100.00
43503;BME280;29098;48.184;16.298;2023-02-03T05:42:56;99981.25;;;2.91;100.00
43503;BME280;29098;48.184;16.298;2023-02-03T05:45:22;99978.28;;;2.96;100.00
43503;BME280;29098;48.184;16.298;2023-02-03T05:47:47;99977.22;;;2.98;100.00
43503;BME280;29098;48.184;16.298;2023-02-03T05:50:13;99960.03;;;3.07;100.00
43503;BME280;29098;48.184;16.298;2023-02-03T05:52:38;99980.44;;;3.02;100.00
43503;BME280;29098;48.184;16.298;2023-02-03T05:55:03;99975.91;;;3.04;100.00
43503;BME280;29098;48.184;16.298;2023-02-03T05:57:29;99953.78;;;3.10;100.00
43503;BME280;29098;48.184;16.298;2023-02-03T05:59:54;99966.91;;;2.97;100.00
43503;BME280;29098;48.184;16.298;2023-02-03T06:02:19;99964.22;;;2.98;100.00
43503;BME280;29098;48.184;16.298;2023-02-03T06:04:45;99943.59;;;3.07;100.00
43503;BME280;29098;48.184;16.298;2023-02-03T06:07:10;99951.41;;;3.18;100.00
43503;BME280;29098;48.184;16.298;2023-02-03T06:09:35;99944.53;;;3.17;100.00
43503;BME280;29098;48.184;16.298;2023-02-03T06:12:01;99939.81;;;3.11;100.00
43503;BME280;29098;48.184;16.298;2023-02-03T06:14:26;99952.38;;;3.06;100.00
43503;BME280;29098;48.184;16.298;2023-02-03T06:16:52;99939.81;;;3.11;100.00
43503;BME280;29098;48.184;16.298;2023-02-03T06:19:17;99950.00;;;3.14;100.00
43503;BME280;29098;48.184;16.298;2023-02-03T06:21:43;99941.22;;;3.15;100.00
43503;BME280;29098;48.184;16.298;2023-02-03T06:24:09;99932.00;;;3.22;100.00
43503;BME280;29098;48.184;16.298;2023-02-03T06:26:34;99929.28;;;3.24;100.00
43503;BME280;29098;48.184;16.298;2023-02-03T06:28:59;99914.72;;;3.21;100.00
43503;BME280;29098;48.184;16.298;2023-02-03T06:31:25;99928.19;;;3.26;100.00
43503;BME280;29098;48.184;16.298;2023-02-03T06:33:50;99926.53;;;3.25;100.00
43503;BME280;29098;48.184;16.298;2023-02-03T06:36:15;99933.91;;;3.20;100.00
43503;BME280;29098;48.184;16.298;2023-02-03T06:38:41;99933.91;;;3.20;100.00
43503;BME280;29098;48.184;16.298;2023-02-03T06:41:06;99924.78;;;3.26;100.00
43503;BME280;29098;48.184;16.298;2023-02-03T06:43:31;99928.91;;;3.28;100.00
43503;BME280;29098;48.184;16.298;2023-02-03T06:45:57;99921.09;;;3.28;100.00
43503;BME280;29098;48.184;16.298;2023-02-03T06:48:22;99923.22;;;3.23;100.00
43503;BME280;29098;48.184;16.298;2023-02-03T06:50:47;99915.97;;;3.38;100.00
43503;BME280;29098;48.184;16.298;2023-02-03T06:53:13;99914.78;;;3.42;100.00
43503;BME280;29098;48.184;16.298;2023-02-03T06:55:38;99901.19;;;3.39;100.00
43503;BME280;29098;48.184;16.298;2023-02-03T06:58:03;99908.69;;;3.65;100.00
43503;BME280;29098;48.184;16.298;2023-02-03T07:00:29;99919.59;;;3.70;100.00
43503;BME280;29098;48.184;16.298;2023-02-03T07:02:55;99922.72;;;3.96;100.00
43503;BME280;29098;48.184;16.298;2023-02-03T07:05:22;99917.03;;;3.91;100.00
43503;BME280;29098;48.184;16.298;2023-02-03T07:07:47;99898.66;;;3.93;100.00
43503;BME280;29098;48.184;16.298;2023-02-03T07:10:13;99920.28;;;3.83;100.00
43503;BME280;29098;48.184;16.298;2023-02-03T07:12:38;99901.81;;;3.75;100.00
43503;BME280;29098;48.184;16.298;2023-02-03T07:15:03;99908.69;;;3.65;100.00
43503;BME280;29098;48.184;16.298;2023-02-03T07:17:29;99911.22;;;3.88;100.00
43503;BME280;29098;48.184;16.298;2023-02-03T07:19:54;99907.09;;;3.85;100.00
43503;BME280;29098;48.184;16.298;2023-02-03T07:22:19;99910.03;;;3.92;100.00
43503;BME280;29098;48.184;16.298;2023-02-03T07:24:45;99911.97;;;3.90;100.00
43503;BME280;29098;48.184;16.298;2023-02-03T07:27:10;99896.63;;;3.96;100.00
43503;BME280;29098;48.184;16.298;2023-02-03T07:29:35;99924.38;;;3.97;100.00
43503;BME280;29098;48.184;16.298;2023-02-03T07:32:01;99913.81;;;3.99;100.00
43503;BME280;29098;48.184;16.298;2023-02-03T07:34:26;99904.13;;;3.90;100.00
43503;BME280;29098;48.184;16.298;2023-02-03T07:36:52;99900.56;;;3.91;100.00
43503;BME280;29098;48.184;16.298;2023-02-03T07:39:17;99897.22;;;3.89;100.00
43503;BME280;29098;48.184;16.298;2023-02-03T07:41:42;99872.94;;;3.88;100.00
43503;BME280;29098;48.184;16.298;2023-02-03T07:44:07;99889.25;;;4.02;100.00
43503;BME280;29098;48.184;16.298;2023-02-03T07:46:33;99882.63;;;3.97;100.00
43503;BME280;29098;48.184;16.298;2023-02-03T07:48:59;99892.94;;;3.99;100.00
43503;BME280;29098;48.184;16.298;2023-02-03T07:51:24;99878.38;;;3.96;100.00
43503;BME280;29098;48.184;16.298;2023-02-03T07:53:49;99867.09;;;3.96;100.00
43503;BME280;29098;48.184;16.298;2023-02-03T07:56:15;99890.72;;;4.16;100.00
43503;BME280;29098;48.184;16.298;2023-02-03T07:58:40;99879.84;;;4.10;100.00
43503;BME280;29098;48.184;16.298;2023-02-03T08:01:12;99870.81;;;4.15;100.00
43503;BME280;29098;48.184;16.298;2023-02-03T08:03:38;99868.91;;;4.17;100.00
43503;BME280;29098;48.184;16.298;2023-02-03T08:06:04;99859.09;;;4.30;100.00
43503;BME280;29098;48.184;16.298;2023-02-03T08:08:30;99853.09;;;4.39;100.00
43503;BME280;29098;48.184;16.298;2023-02-03T08:10:55;99858.13;;;4.31;100.00
43503;BME280;29098;48.184;16.298;2023-02-03T08:13:20;99860.63;;;4.33;100.00
43503;BME280;29098;48.184;16.298;2023-02-03T08:15:46;99857.81;;;4.46;100.00
43503;BME280;29098;48.184;16.298;2023-02-03T08:18:11;99836.13;;;4.55;100.00
43503;BME280;29098;48.184;16.298;2023-02-03T08:20:36;99819.38;;;4.58;100.00
43503;BME280;29098;48.184;16.298;2023-02-03T08:23:02;99843.91;;;4.66;100.00
43503;BME280;29098;48.184;16.298;2023-02-03T08:25:27;99829.31;;;4.64;100.00
43503;BME280;29098;48.184;16.298;2023-02-03T08:27:52;99834.53;;;4.64;100.00
43503;BME280;29098;48.184;16.298;2023-02-03T08:30:18;99827.66;;;4.63;100.00
43503;BME280;29098;48.184;16.298;2023-02-03T08:32:43;99820.56;;;4.75;100.00
43503;BME280;29098;48.184;16.298;2023-02-03T08:35:08;99822.06;;;4.77;100.00
43503;BME280;29098;48.184;16.298;2023-02-03T08:37:34;99811.50;;;4.79;100.00
43503;BME280;29098;48.184;16.298;2023-02-03T08:39:59;99807.41;;;4.96;100.00
43503;BME280;29098;48.184;16.298;2023-02-03T08:42:25;99811.53;;;4.89;100.00
43503;BME280;29098;48.184;16.298;2023-02-03T08:44:50;99788.53;;;4.83;100.00
43503;BME280;29098;48.184;16.298;2023-02-03T08:47:16;99789.53;;;4.91;100.00
43503;BME280;29098;48.184;16.298;2023-02-03T08:49:41;99784.72;;;4.97;100.00
43503;BME280;29098;48.184;16.298;2023-02-03T08:52:07;99775.94;;;5.07;100.00
43503;BME280;29098;48.184;16.298;2023-02-03T08:54:33;99791.09;;;5.14;100.00
43503;BME280;29098;48.184;16.298;2023-02-03T08:56:58;99788.34;;;5.15;100.00
43503;BME280;29098;48.184;16.298;2023-02-03T08:59:23;99813.50;;;5.16;100.00
43503;BME280;29098;48.184;16.298;2023-02-03T09:01:49;99759.03;;;5.12;100.00
43503;BME280;29098;48.184;16.298;2023-02-03T09:04:15;99770.03;;;5.15;100.00
43503;BME280;29098;48.184;16.298;2023-02-03T09:06:48;99723.81;;;5.35;100.00
43503;BME280;29098;48.184;16.298;2023-02-03T09:09:14;99775.28;;;5.35;100.00
43503;BME280;29098;48.184;16.298;2023-02-03T09:11:40;99759.34;;;5.38;100.00
43503;BME280;29098;48.184;16.298;2023-02-03T09:14:05;99735.25;;;5.44;100.00
43503;BME280;29098;48.184;16.298;2023-02-03T09:16:31;99724.94;;;5.43;100.00
43503;BME280;29098;48.184;16.298;2023-02-03T09:18:56;99737.56;;;5.47;100.00
43503;BME280;29098;48.184;16.298;2023-02-03T09:21:21;99753.13;;;5.59;100.00
43503;BME280;29098;48.184;16.298;2023-02-03T09:23:48;99748.47;;;5.62;100.00
43503;BME280;29098;48.184;16.298;2023-02-03T09:26:14;99739.91;;;5.60;100.00
43503;BME280;29098;48.184;16.298;2023-02-03T09:28:40;99733.03;;;5.69;99.72
43503;BME280;29098;48.184;16.298;2023-02-03T09:31:06;99738.53;;;5.66;100.00
43503;BME280;29098;48.184;16.298;2023-02-03T09:33:32;99700.13;;;5.67;97.96
43503;BME280;29098;48.184;16.298;2023-02-03T09:35:57;99719.09;;;5.69;98.15
43503;BME280;29098;48.184;16.298;2023-02-03T09:38:23;99703.94;;;5.82;97.08
43503;BME280;29098;48.184;16.298;2023-02-03T09:40:53;99710.69;;;5.85;96.48
43503;BME280;29098;48.184;16.298;2023-02-03T09:43:30;99703.63;;;5.95;95.38
43503;BME280;29098;48.184;16.298;2023-02-03T09:46:10;99678.00;;;5.99;94.95
43503;BME280;29098;48.184;16.298;2023-02-03T09:48:38;99697.94;;;6.00;95.13
43503;BME280;29098;48.184;16.298;2023-02-03T09:51:06;99678.81;;;5.99;94.46
43503;BME280;29098;48.184;16.298;2023-02-03T09:53:35;99695.06;;;6.13;93.85
43503;BME280;29098;48.184;16.298;2023-02-03T09:56:03;99672.84;;;6.17;93.22
43503;BME280;29098;48.184;16.298;2023-02-03T09:58:31;99667.47;;;6.19;92.77
43503;BME280;29098;48.184;16.298;2023-02-03T10:00:58;99664.31;;;6.15;93.05
43503;BME280;29098;48.184;16.298;2023-02-03T10:19:10;99631.31;;;6.32;92.12
43503;BME280;29098;48.184;16.298;2023-02-03T10:21:41;99606.09;;;6.49;92.59
43503;BME280;29098;48.184;16.298;2023-02-03T10:24:09;99615.16;;;6.37;91.53
43503;BME280;29098;48.184;16.298;2023-02-03T10:26:36;99625.94;;;6.52;91.55
43503;BME280;29098;48.184;16.298;2023-02-03T10:29:05;99588.28;;;6.71;91.35
43503;BME280;29098;48.184;16.298;2023-02-03T10:31:34;99615.84;;;6.75;91.32
43503;BME280;29098;48.184;16.298;2023-02-03T10:34:03;99599.91;;;6.68;90.24
43503;BME280;29098;48.184;16.298;2023-02-03T10:41:41;99557.47;;;6.47;91.05
43503;BME280;29098;48.184;16.298;2023-02-03T10:44:07;99542.38;;;6.58;90.86
43503;BME280;29098;48.184;16.298;2023-02-03T10:46:36;99545.59;;;6.52;90.20
43503;BME280;29098;48.184;16.298;2023-02-03T10:49:03;99520.44;;;6.60;90.99
43503;BME280;29098;48.184;16.298;2023-02-03T10:51:35;99502.31;;;6.66;90.01
43503;BME280;29098;48.184;16.298;2023-02-03T10:54:01;99526.66;;;6.58;90.22
43503;BME280;29098;48.184;16.298;2023-02-03T10:56:36;99527.13;;;6.62;89.25
43503;BME280;29098;48.184;16.298;2023-02-03T10:59:02;99489.53;;;6.63;89.65
43503;BME280;29098;48.184;16.298;2023-02-03T11:01:39;99538.84;;;6.50;89.24
43503;BME280;29098;48.184;16.298;2023-02-03T11:04:05;99535.44;;;6.57;89.70
43503;BME280;29098;48.184;16.298;2023-02-03T11:06:31;99537.94;;;6.59;88.74
43503;BME280;29098;48.184;16.298;2023-02-03T11:08:57;99550.97;;;6.69;87.72
43503;BME280;29098;48.184;16.298;2023-02-03T11:14:08;99512.78;;;6.66;87.31
43503;BME280;29098;48.184;16.298;2023-02-03T11:16:35;99554.38;;;6.69;86.92
43503;BME280;29098;48.184;16.298;2023-02-03T11:24:20;99529.00;;;6.70;86.57
43503;BME280;29098;48.184;16.298;2023-02-03T11:29:20;99524.44;;;6.72;86.56
43503;BME280;29098;48.184;16.298;2023-02-03T11:31:56;99589.41;;;6.68;86.79
43503;BME280;29098;48.184;16.298;2023-02-03T11:34:32;99552.75;;;6.68;86.56
43503;BME280;29098;48.184;16.298;2023-02-03T11:39:42;99491.38;;;6.53;87.47
43503;BME280;29098;48.184;16.298;2023-02-03T11:42:20;99484.75;;;6.58;87.29
43503;BME280;29098;48.184;16.298;2023-02-03T11:44:45;99502.91;;;6.60;86.84
43503;BME280;29098;48.184;16.298;2023-02-03T11:47:11;99461.00;;;6.42;87.45
43503;BME280;29098;48.184;16.298;2023-02-03T11:52:21;99401.81;;;6.49;87.25
43503;BME280;29098;48.184;16.298;2023-02-03T11:58:19;99406.53;;;6.46;85.90
43503;BME280;29098;48.184;16.298;2023-02-03T12:14:14;99378.28;;;6.31;88.99
43503;BME280;29098;48.184;16.298;2023-02-03T12:19:13;99375.00;;;6.29;91.48
43503;BME280;29098;48.184;16.298;2023-02-03T12:21:45;99369.41;;;6.24;91.95
43503;BME280;29098;48.184;16.298;2023-02-03T12:26:46;99350.69;;;6.37;88.30
43503;BME280;29098;48.184;16.298;2023-02-03T12:29:19;99322.88;;;6.36;87.74
43503;BME280;29098;48.184;16.298;2023-02-03T12:31:46;99350.38;;;6.40;87.40
43503;BME280;29098;48.184;16.298;2023-02-03T12:34:20;99329.00;;;6.53;86.07
43503;BME280;29098;48.184;16.298;2023-02-03T12:36:49;99321.00;;;6.54;85.64
43503;BME280;29098;48.184;16.298;2023-02-03T12:39:24;99321.66;;;6.56;86.25
43503;BME280;29098;48.184;16.298;2023-02-03T12:42:00;99317.59;;;6.62;84.73
43503;BME280;29098;48.184;16.298;2023-02-03T12:47:24;99302.00;;;6.52;86.80
43503;BME280;29098;48.184;16.298;2023-02-03T12:49:56;99282.69;;;6.53;86.51
43503;BME280;29098;48.184;16.298;2023-02-03T12:52:29;99374.59;;;6.42;86.45
43503;BME280;29098;48.184;16.298;2023-02-03T12:57:43;99297.38;;;6.46;86.99
43503;BME280;29098;48.184;16.298;2023-02-03T13:00:14;99287.03;;;6.36;87.56
43503;BME280;29098;48.184;16.298;2023-02-03T13:02:58;99281.94;;;6.35;88.16
43503;BME280;29098;48.184;16.298;2023-02-03T13:08:13;99243.97;;;6.30;88.02
43503;BME280;29098;48.184;16.298;2023-02-03T13:10:50;99264.28;;;6.37;87.81
43503;BME280;29098;48.184;16.298;2023-02-03T13:13:20;99271.84;;;6.48;86.01
43503;BME280;29098;48.184;16.298;2023-02-03T13:15:48;99262.38;;;6.47;85.99
43503;BME280;29098;48.184;16.298;2023-02-03T13:18:22;99264.31;;;6.45;85.72
43503;BME280;29098;48.184;16.298;2023-02-03T13:20:50;99254.88;;;6.52;86.02
43503;BME280;29098;48.184;16.298;2023-02-03T13:23:16;99305.25;;;6.46;86.11
43503;BME280;29098;48.184;16.298;2023-02-03T13:41:00;99217.38;;;6.60;86.84
43503;BME280;29098;48.184;16.298;2023-02-03T13:43:28;99239.31;;;6.51;87.00
43503;BME280;29098;48.184;16.298;2023-02-03T13:45:55;99207.53;;;6.46;86.28
43503;BME280;29098;48.184;16.298;2023-02-03T13:48:22;99223.44;;;6.52;86.37
43503;BME280;29098;48.184;16.298;2023-02-03T13:50:49;99225.75;;;6.64;85.24
43503;BME280;29098;48.184;16.298;2023-02-03T13:53:22;99239.84;;;6.63;86.26
43503;BME280;29098;48.184;16.298;2023-02-03T13:55:56;99209.03;;;6.56;88.25
43503;BME280;29098;48.184;16.298;2023-02-03T13:58:33;99258.59;;;6.41;92.72
43503;BME280;29098;48.184;16.298;2023-02-03T14:01:00;99257.78;;;6.14;98.34
43503;BME280;29098;48.184;16.298;2023-02-03T14:05:52;99275.81;;;5.99;100.00
43503;BME280;29098;48.184;16.298;2023-02-03T14:09:16;99261.06;;;5.90;98.76
43503;BME280;29098;48.184;16.298;2023-02-03T14:13:49;99289.94;;;5.62;100.00
43503;BME280;29098;48.184;16.298;2023-02-03T14:16:22;99270.50;;;5.65;100.00
43503;BME280;29098;48.184;16.298;2023-02-03T14:18:48;99274.84;;;5.56;100.00
43503;BME280;29098;48.184;16.298;2023-02-03T14:21:18;99264.16;;;5.49;100.00
43503;BME280;29098;48.184;16.298;2023-02-03T14:23:45;99280.91;;;5.38;100.00
43503;BME280;29098;48.184;16.298;2023-02-03T14:29:49;99299.25;;;5.28;100.00
43503;BME280;29098;48.184;16.298;2023-02-03T14:32:07;99294.34;;;5.25;100.00
43503;BME280;29098;48.184;16.298;2023-02-03T14:34:46;99288.00;;;5.28;100.00